Time;durP1;ratioP1;P1;durP2;ratioP2;P2;SDS_P1;SDS_P2;PMS_P1;PMS_P2;Temp;Humidity;BMP_temperature;BMP_pressure;BME280_temperature;BME280_humidity;BME280_pressure;Samples;Min_cycle;Max_cycle;Signal;HPM_P1;HPM_P2
2024/01/06 00:00:49;;;;;;;3.30;2.87;;;;;;;1.29;100.00;100510.53;6185076;28;20324;-70
2024/01/06 00:04:10;;;;;;;2.60;2.40;;;;;;;1.24;100.00;100506.41;6207630;28;20344;-70
2024/01/06 00:07:31;;;;;;;3.53;3.00;;;;;;;1.02;100.00;100517.38;6221157;28;20523;-69
2024/01/06 00:10:52;;;;;;;3.37;3.17;;;;;;;1.13;100.00;100530.03;6222192;28;20248;-70
2024/01/06 00:14:13;;;;;;;3.93;3.63;;;;;;;0.94;100.00;100529.38;6213612;28;20233;-69
2024/01/06 00:17:35;;;;;;;4.67;3.33;;;;;;;1.00;100.00;100521.06;6203784;28;20237;-70
2024/01/06 00:20:56;;;;;;;2.40;2.20;;;;;;;1.16;100.00;100530.75;6204492;28;20229;-70
2024/01/06 00:24:17;;;;;;;3.90;3.60;;;;;;;1.11;100.00;100530.13;6214835;28;20238;-70
2024/01/06 00:27:38;;;;;;;3.67;3.37;;;;;;;1.22;100.00;100524.22;6209372;28;20850;-69
2024/01/06 00:30:59;;;;;;;3.53;3.23;;;;;;;1.08;100.00;100532.09;6213610;28;20587;-70
2024/01/06 00:34:21;;;;;;;4.27;3.90;;;;;;;1.23;100.00;100524.13;6212410;28;20236;-70
2024/01/06 00:37:42;;;;;;;3.37;3.17;;;;;;;1.04;100.00;100536.72;6213437;28;20218;-70
2024/01/06 00:41:03;;;;;;;3.10;2.57;;;;;;;1.19;100.00;100543.81;6206533;28;20320;-69
2024/01/06 00:44:24;;;;;;;4.93;3.67;;;;;;;1.17;100.00;100543.06;6210233;28;20228;-70
2024/01/06 00:47:45;;;;;;;3.63;3.33;;;;;;;0.95;100.00;100537.22;6213203;28;20224;-70
2024/01/06 00:51:07;;;;;;;3.10;2.80;;;;;;;0.96;100.00;100536.28;6207442;28;20240;-70
2024/01/06 00:54:28;;;;;;;3.97;3.57;;;;;;;0.87;100.00;100543.88;6212904;28;20639;-69
2024/01/06 00:57:50;;;;;;;3.53;3.23;;;;;;;1.20;100.00;100555.31;6214067;28;20380;-70
2024/01/06 01:01:11;;;;;;;3.73;3.43;;;;;;;1.21;100.00;100551.72;6201595;28;20233;-71
2024/01/06 01:04:32;;;;;;;3.53;3.23;;;;;;;1.01;100.00;100555.47;6212069;28;20229;-69
2024/01/06 01:07:54;;;;;;;3.03;2.57;;;;;;;0.88;100.00;100557.06;6209055;28;20599;-70
2024/01/06 01:11:15;;;;;;;2.87;2.67;;;;;;;1.01;100.00;100558.13;6206332;28;20312;-70
2024/01/06 01:14:36;;;;;;;3.70;3.40;;;;;;;1.11;100.00;100566.41;6211141;28;20233;-70
2024/01/06 01:17:57;;;;;;;3.80;3.33;;;;;;;1.13;100.00;100562.75;6209812;28;20328;-70
2024/01/06 01:21:18;;;;;;;4.23;3.87;;;;;;;1.24;100.00;100570.97;6202788;28;20229;-69
2024/01/06 01:24:40;;;;;;;3.33;3.00;;;;;;;1.07;100.00;100579.00;6209743;28;20237;-69
2024/01/06 01:28:01;;;;;;;3.20;3.00;;;;;;;1.01;100.00;100574.03;6213704;28;20233;-69
2024/01/06 01:31:22;;;;;;;2.87;2.63;;;;;;;0.73;100.00;100584.44;6206835;28;20501;-70
2024/01/06 01:34:43;;;;;;;3.10;2.77;;;;;;;0.94;100.00;100583.25;6208990;28;20312;-70
2024/01/06 01:38:04;;;;;;;3.17;2.70;;;;;;;0.86;100.00;100593.44;6208908;28;20257;-69
2024/01/06 01:41:26;;;;;;;3.37;3.17;;;;;;;1.03;100.00;100593.38;6206965;28;20225;-70
2024/01/06 01:44:46;;;;;;;3.53;3.00;;;;;;;1.09;100.00;100601.00;6208811;28;20233;-69
2024/01/06 01:48:08;;;;;;;4.80;4.17;;;;;;;0.99;100.00;100602.44;6210150;28;20645;-69
2024/01/06 01:51:30;;;;;;;2.93;2.73;;;;;;;0.91;100.00;100598.50;6210284;28;20317;-69
2024/01/06 01:54:52;;;;;;;4.20;3.80;;;;;;;1.06;100.00;100606.50;6209701;28;20233;-71
2024/01/06 01:58:14;;;;;;;2.90;2.60;;;;;;;1.06;100.00;100600.34;6209766;28;20320;-70
2024/01/06 02:01:35;;;;;;;5.07;3.67;;;;;;;1.05;100.00;100606.56;6205769;28;20229;-69
2024/01/06 02:04:57;;;;;;;4.80;3.30;;;;;;;1.01;100.00;100611.19;6204326;28;20257;-70
2024/01/06 02:08:17;;;;;;;3.37;3.17;;;;;;;1.05;100.00;100614.53;6209157;28;20229;-70
2024/01/06 02:11:38;;;;;;;4.97;3.80;;;;;;;1.04;100.00;100605.72;6205001;28;20224;-69
2024/01/06 02:15:01;;;;;;;3.03;2.53;;;;;;;1.16;100.00;100613.03;6207948;28;20245;-68
2024/01/06 02:18:22;;;;;;;2.73;2.53;;;;;;;0.89;100.00;100616.28;6198862;28;20236;-69
2024/01/06 02:21:44;;;;;;;3.27;3.07;;;;;;;1.08;100.00;100617.03;6213331;28;20229;-69
2024/01/06 02:25:12;;;;;;;3.10;2.80;;;;;;;1.05;100.00;100625.13;6204913;28;20240;-70
2024/01/06 02:28:33;;;;;;;2.87;2.67;;;;;;;1.10;100.00;100629.28;6204352;28;20240;-70
2024/01/06 02:31:54;;;;;;;3.60;3.33;;;;;;;1.17;100.00;100641.25;6200131;28;20229;-70
2024/01/06 02:35:15;;;;;;;3.83;3.50;;;;;;;1.14;100.00;100633.47;6208399;28;20725;-70
2024/01/06 02:38:36;;;;;;;3.27;2.97;;;;;;;1.24;100.00;100639.13;6207962;28;20228;-69
2024/01/06 02:41:58;;;;;;;4.10;3.17;;;;;;;1.24;100.00;100642.66;6208169;28;20256;-68
2024/01/06 02:45:19;;;;;;;3.00;2.73;;;;;;;1.08;100.00;100651.53;6209471;28;20241;-69
2024/01/06 02:48:40;;;;;;;3.30;3.00;;;;;;;1.15;100.00;100651.09;6203694;28;20221;-69
2024/01/06 02:52:01;;;;;;;2.87;2.67;;;;;;;1.15;100.00;100650.28;6202253;28;20233;-69
2024/01/06 02:55:22;;;;;;;3.23;2.77;;;;;;;1.19;100.00;100650.00;6207714;28;20308;-69
2024/01/06 02:58:44;;;;;;;3.57;3.27;;;;;;;1.22;100.00;100643.66;6205747;28;20229;-69
2024/01/06 03:02:05;;;;;;;3.47;3.17;;;;;;;1.14;100.00;100654.72;6209484;28;20499;-69
2024/01/06 03:05:26;;;;;;;2.30;2.10;;;;;;;1.06;100.00;100658.72;6200475;28;20244;-69
2024/01/06 03:08:47;;;;;;;4.00;3.63;;;;;;;1.08;100.00;100652.38;6206840;28;20237;-70
2024/01/06 03:12:09;;;;;;;3.33;2.83;;;;;;;1.02;100.00;100660.69;6205013;28;20315;-69
2024/01/06 03:15:31;;;;;;;3.53;3.23;;;;;;;0.90;100.00;100657.81;6207372;28;20236;-70
2024/01/06 03:18:52;;;;;;;3.83;3.53;;;;;;;1.00;100.00;100664.34;6204345;28;20221;-70
2024/01/06 03:22:13;;;;;;;4.67;4.20;;;;;;;1.06;100.00;100667.53;6207386;28;20613;-69
2024/01/06 03:25:34;;;;;;;4.70;4.30;;;;;;;1.04;100.00;100665.91;6204430;28;20576;-69
2024/01/06 03:28:55;;;;;;;3.90;3.57;;;;;;;0.97;100.00;100672.47;6207865;28;20509;-69
2024/01/06 03:32:17;;;;;;;2.93;2.73;;;;;;;1.00;100.00;100670.50;6204268;28;20229;-69
2024/01/06 03:35:38;;;;;;;3.93;3.63;;;;;;;0.98;100.00;100675.03;6207656;28;20250;-69
2024/01/06 03:38:59;;;;;;;4.27;3.67;;;;;;;0.84;100.00;100680.19;6205392;28;20250;-69
2024/01/06 03:42:20;;;;;;;5.50;5.10;;;;;;;1.05;100.00;100679.09;6207506;28;20233;-69
2024/01/06 03:45:41;;;;;;;3.97;3.63;;;;;;;0.91;100.00;100684.25;6207460;28;20241;-70
2024/01/06 03:49:04;;;;;;;4.20;3.80;;;;;;;0.95;100.00;100679.66;6208254;28;20225;-69
2024/01/06 03:52:25;;;;;;;4.90;4.33;;;;;;;0.77;100.00;100690.28;6207776;28;20517;-68
2024/01/06 03:55:45;;;;;;;4.43;3.73;;;;;;;0.86;100.00;100688.06;6205390;28;20232;-69
2024/01/06 03:59:07;;;;;;;4.73;3.80;;;;;;;1.02;100.00;100704.94;6207605;28;20221;-70
2024/01/06 04:02:28;;;;;;;5.50;3.67;;;;;;;0.81;100.00;100706.91;6206881;28;20237;-69
2024/01/06 04:05:50;;;;;;;3.50;3.23;;;;;;;0.78;100.00;100712.34;6205910;28;20492;-69
2024/01/06 04:09:11;;;;;;;3.93;3.63;;;;;;;0.94;100.00;100718.56;6204771;28;20561;-68
2024/01/06 04:12:32;;;;;;;4.43;4.03;;;;;;;0.87;100.00;100713.69;6208544;28;20233;-68
2024/01/06 04:15:53;;;;;;;3.97;3.53;;;;;;;0.94;100.00;100715.94;6205969;28;20237;-69
2024/01/06 04:19:15;;;;;;;3.83;3.53;;;;;;;0.71;100.00;100716.25;6209459;28;20233;-68
2024/01/06 04:22:37;;;;;;;5.13;4.70;;;;;;;0.91;100.00;100710.78;6207736;28;20240;-69
2024/01/06 04:25:57;;;;;;;3.33;3.10;;;;;;;0.83;100.00;100719.13;6205095;28;20621;-69
2024/01/06 04:29:19;;;;;;;3.20;2.90;;;;;;;0.85;100.00;100719.06;6211055;28;20233;-69
2024/01/06 04:32:40;;;;;;;4.83;4.43;;;;;;;0.50;100.00;100725.31;6205857;28;20319;-69
2024/01/06 04:36:01;;;;;;;4.83;3.13;;;;;;;0.66;100.00;100723.59;6205433;28;20718;-69
2024/01/06 04:39:24;;;;;;;3.80;3.50;;;;;;;0.70;100.00;100731.31;6206705;28;20237;-69
2024/01/06 04:42:45;;;;;;;3.37;3.07;;;;;;;0.94;100.00;100733.66;6208207;28;20562;-69
2024/01/06 04:46:06;;;;;;;3.57;3.27;;;;;;;1.00;100.00;100741.31;6205900;28;20236;-69
2024/01/06 04:49:27;;;;;;;4.03;3.70;;;;;;;0.95;100.00;100751.28;6208974;28;20225;-69
2024/01/06 04:52:49;;;;;;;6.73;4.70;;;;;;;0.78;100.00;100757.44;6224884;28;20233;-69
2024/01/06 04:56:11;;;;;;;4.13;3.73;;;;;;;0.83;100.00;100766.03;6211319;28;20238;-69
2024/01/06 04:59:32;;;;;;;3.43;3.03;;;;;;;0.81;100.00;100768.75;6210584;28;20233;-69
2024/01/06 05:02:53;;;;;;;3.70;3.40;;;;;;;0.94;100.00;100768.16;6204278;28;20256;-69
2024/01/06 05:06:14;;;;;;;4.00;3.70;;;;;;;1.01;100.00;100772.19;6208337;28;20236;-69
2024/01/06 05:09:35;;;;;;;11.80;5.27;;;;;;;0.88;100.00;100771.13;6660805;23;20243;-69
2024/01/06 05:12:57;;;;;;;4.03;3.73;;;;;;;1.00;100.00;100778.47;6130066;28;20512;-69
2024/01/06 05:16:18;;;;;;;4.37;3.97;;;;;;;0.87;100.00;100770.25;6114651;28;20236;-69
2024/01/06 05:19:39;;;;;;;3.87;3.53;;;;;;;0.78;100.00;100776.88;6113100;28;20227;-69
2024/01/06 05:22:59;;;;;;;4.10;3.70;;;;;;;0.83;100.00;100774.84;6110794;28;20244;-69
2024/01/06 05:26:20;;;;;;;3.70;3.40;;;;;;;0.75;100.00;100774.38;6114024;28;20322;-69
2024/01/06 05:29:43;;;;;;;4.60;3.97;;;;;;;0.80;100.00;100779.44;6110617;28;20326;-69
2024/01/06 05:33:04;;;;;;;5.70;5.20;;;;;;;0.80;100.00;100792.72;6110310;28;20239;-69
2024/01/06 05:36:26;;;;;;;8.43;4.90;;;;;;;0.98;100.00;100801.56;6107423;28;20232;-68
2024/01/06 05:39:46;;;;;;;3.90;3.47;;;;;;;0.83;100.00;100801.38;6107845;28;20259;-69
2024/01/06 05:43:07;;;;;;;4.73;4.27;;;;;;;0.56;100.00;100807.22;6120781;28;20231;-69
2024/01/06 05:46:30;;;;;;;5.30;4.47;;;;;;;0.70;100.00;100813.56;6109329;28;20244;-69
2024/01/06 05:49:50;;;;;;;8.20;4.57;;;;;;;0.72;100.00;100824.94;6109545;28;20885;-68
2024/01/06 05:53:14;;;;;;;5.47;5.00;;;;;;;0.92;100.00;100831.88;6112688;28;20235;-69
2024/01/06 05:56:34;;;;;;;4.67;3.43;;;;;;;0.97;100.00;100835.19;6111806;28;20244;-69
2024/01/06 05:59:56;;;;;;;5.33;4.60;;;;;;;0.90;100.00;100843.53;6109738;28;20587;-69
2024/01/06 06:03:18;;;;;;;6.50;4.60;;;;;;;0.72;100.00;100851.47;6105220;28;20227;-69
2024/01/06 06:06:39;;;;;;;4.57;3.90;;;;;;;0.63;100.00;100864.28;6112685;28;20557;-69
2024/01/06 06:10:03;;;;;;;4.40;3.83;;;;;;;0.63;100.00;100878.44;6111392;28;20306;-69
2024/01/06 06:13:24;;;;;;;5.10;4.60;;;;;;;0.65;100.00;100875.69;6109746;28;20232;-68
2024/01/06 06:16:44;;;;;;;5.50;4.97;;;;;;;0.85;100.00;100880.03;6109991;28;20235;-70
2024/01/06 06:20:07;;;;;;;6.97;5.33;;;;;;;0.94;100.00;100885.75;6112702;28;20235;-68
2024/01/06 06:23:28;;;;;;;4.93;4.50;;;;;;;0.98;100.00;100889.13;6112279;28;20664;-68
2024/01/06 06:26:49;;;;;;;5.60;5.03;;;;;;;0.85;100.00;100902.13;6108360;28;20232;-68
2024/01/06 06:30:11;;;;;;;4.90;4.40;;;;;;;0.98;100.00;100903.22;6111847;28;20578;-69
2024/01/06 06:33:33;;;;;;;8.37;4.57;;;;;;;0.78;100.00;100904.22;6109964;28;20243;-69
2024/01/06 06:36:55;;;;;;;4.43;4.13;;;;;;;0.70;100.00;100905.53;6115570;28;20232;-68
2024/01/06 06:40:16;;;;;;;5.03;4.50;;;;;;;0.53;100.00;100911.63;6105522;28;20240;-69
2024/01/06 06:43:37;;;;;;;5.27;3.90;;;;;;;0.68;100.00;100915.34;6115032;28;20818;-69
2024/01/06 06:46:58;;;;;;;5.80;4.17;;;;;;;0.74;100.00;100917.69;6105554;28;20519;-69
2024/01/06 06:50:20;;;;;;;6.23;5.73;;;;;;;0.83;100.00;100928.72;6108220;28;20239;-69
2024/01/06 06:53:42;;;;;;;6.13;5.53;;;;;;;0.87;100.00;100937.41;6112754;28;20232;-69
2024/01/06 06:57:04;;;;;;;5.13;4.70;;;;;;;0.85;100.00;100941.06;6109198;28;20232;-68
2024/01/06 07:00:25;;;;;;;4.90;4.50;;;;;;;0.91;100.00;100943.41;6106472;28;20244;-69
2024/01/06 07:03:46;;;;;;;5.83;5.33;;;;;;;0.82;100.00;100947.38;6105418;28;22033;-69
2024/01/06 07:07:07;;;;;;;5.00;4.60;;;;;;;0.88;100.00;100960.34;6106665;28;20267;-69
2024/01/06 07:10:29;;;;;;;5.33;4.93;;;;;;;0.84;100.00;100961.41;6100505;28;20514;-68
2024/01/06 07:13:50;;;;;;;6.03;5.43;;;;;;;0.84;100.00;100964.06;6111553;28;20232;-69
2024/01/06 07:17:11;;;;;;;5.67;4.83;;;;;;;0.81;100.00;100969.53;6106160;28;20227;-69
2024/01/06 07:20:32;;;;;;;6.80;5.57;;;;;;;0.72;100.00;100968.19;6108306;28;20232;-68
2024/01/06 07:23:53;;;;;;;4.87;4.40;;;;;;;0.89;100.00;100977.13;6111795;28;20231;-69
2024/01/06 07:27:15;;;;;;;7.10;6.33;;;;;;;0.79;100.00;100985.50;6110133;28;20252;-69
2024/01/06 07:30:36;;;;;;;6.93;6.33;;;;;;;0.80;100.00;100981.06;6107697;28;20577;-69
2024/01/06 07:33:57;;;;;;;6.93;4.87;;;;;;;0.71;100.00;101000.06;6107418;28;20243;-69
2024/01/06 07:37:18;;;;;;;7.60;6.83;;;;;;;0.69;100.00;100999.28;6107097;28;20613;-70
2024/01/06 07:40:40;;;;;;;5.63;5.07;;;;;;;0.58;100.00;101002.44;6107997;28;20236;-68
2024/01/06 07:44:03;;;;;;;6.23;5.63;;;;;;;0.74;100.00;101003.44;6108822;28;20263;-68
2024/01/06 07:47:24;;;;;;;5.67;5.10;;;;;;;0.71;100.00;101010.66;6109847;28;20248;-68
2024/01/06 07:50:45;;;;;;;6.27;5.13;;;;;;;0.74;100.00;101022.03;6102977;28;20230;-69
2024/01/06 07:54:08;;;;;;;5.33;4.87;;;;;;;0.73;100.00;101024.75;6102035;28;20355;-68
2024/01/06 07:57:29;;;;;;;6.90;6.10;;;;;;;0.41;100.00;101031.50;6103911;28;20247;-69
2024/01/06 08:00:51;;;;;;;5.43;4.93;;;;;;;0.58;100.00;101033.41;6096323;28;20255;-69
2024/01/06 08:04:12;;;;;;;5.43;4.93;;;;;;;0.71;100.00;101047.81;6091176;28;20231;-69
2024/01/06 08:07:33;;;;;;;5.57;4.80;;;;;;;0.56;100.00;101051.19;6109525;28;20559;-69
2024/01/06 08:10:53;;;;;;;5.80;5.13;;;;;;;0.86;100.00;101056.84;6106335;28;20240;-70
2024/01/06 08:14:16;;;;;;;6.20;4.03;;;;;;;0.73;100.00;101054.75;6095385;28;20223;-69
2024/01/06 08:17:40;;;;;;;5.43;4.23;;;;;;;0.56;100.00;101056.47;6107764;28;20501;-69
2024/01/06 08:21:01;;;;;;;6.57;5.47;;;;;;;0.58;100.00;101071.41;6100488;28;20236;-68
2024/01/06 08:24:22;;;;;;;4.27;3.80;;;;;;;0.83;100.00;101071.97;6116204;28;20251;-69
2024/01/06 08:27:42;;;;;;;5.60;4.10;;;;;;;0.88;100.00;101084.22;6112260;28;20231;-69
2024/01/06 08:31:03;;;;;;;6.07;5.43;;;;;;;0.93;100.00;101083.06;6113102;28;20240;-69
2024/01/06 08:34:26;;;;;;;4.53;4.10;;;;;;;0.83;100.00;101093.22;6114417;28;20227;-69
2024/01/06 08:37:47;;;;;;;4.50;3.20;;;;;;;0.60;100.00;101097.84;6101389;28;20584;-70
2024/01/06 08:41:08;;;;;;;5.10;4.67;;;;;;;0.77;100.00;101109.41;6108183;28;20232;-69
2024/01/06 08:44:29;;;;;;;5.10;4.37;;;;;;;0.64;100.00;101118.00;6114995;28;20239;-69
2024/01/06 08:47:50;;;;;;;5.67;5.03;;;;;;;0.71;100.00;101115.00;6117680;28;20251;-68
2024/01/06 08:51:12;;;;;;;8.77;5.37;;;;;;;0.67;100.00;101124.00;6114091;28;20271;-68
2024/01/06 08:54:33;;;;;;;4.77;4.37;;;;;;;0.87;100.00;101124.91;6111428;28;20240;-68
2024/01/06 08:57:54;;;;;;;4.77;4.20;;;;;;;0.96;100.00;101130.66;6104081;28;20240;-68
2024/01/06 09:01:15;;;;;;;4.97;4.57;;;;;;;0.84;100.00;101141.84;6121320;28;20240;-69
2024/01/06 09:04:35;;;;;;;4.07;3.63;;;;;;;0.79;100.00;101144.69;6109496;28;20491;-69
2024/01/06 09:07:58;;;;;;;5.73;5.23;;;;;;;0.90;100.00;101151.34;6114862;28;20247;-69
2024/01/06 09:11:19;;;;;;;6.40;5.80;;;;;;;0.90;100.00;101149.50;6105325;28;21412;-68
2024/01/06 09:14:40;;;;;;;4.87;4.47;;;;;;;1.08;100.00;101161.09;6115799;28;20236;-68
2024/01/06 09:18:02;;;;;;;5.00;4.60;;;;;;;1.00;100.00;101165.91;6102351;28;20504;-68
2024/01/06 09:21:23;;;;;;;6.70;5.37;;;;;;;1.06;100.00;101169.16;6110182;28;20240;-68
2024/01/06 09:24:45;;;;;;;4.53;4.13;;;;;;;1.13;100.00;101169.69;6123265;28;20327;-69
2024/01/06 09:28:06;;;;;;;6.67;5.87;;;;;;;1.12;100.00;101173.31;6115090;28;20239;-69
2024/01/06 09:31:27;;;;;;;6.87;5.67;;;;;;;1.07;100.00;101183.25;6112368;28;20232;-69
2024/01/06 09:34:47;;;;;;;6.13;5.53;;;;;;;0.91;100.00;101177.78;6114070;28;20247;-69
2024/01/06 09:38:08;;;;;;;4.73;4.33;;;;;;;1.22;100.00;101190.53;6099617;28;20617;-68
2024/01/06 09:41:31;;;;;;;6.37;4.53;;;;;;;1.12;100.00;101195.41;6106550;28;20232;-69
2024/01/06 09:44:52;;;;;;;5.37;4.93;;;;;;;1.01;100.00;101205.63;6112924;28;20259;-68
2024/01/06 09:48:14;;;;;;;5.43;4.43;;;;;;;1.10;100.00;101210.53;6114944;28;20228;-69
2024/01/06 09:51:37;;;;;;;4.57;3.77;;;;;;;2.74;100.00;101206.97;6109623;28;20240;-70
2024/01/06 09:54:59;;;;;;;6.83;6.23;;;;;;;2.58;100.00;101206.06;6110493;28;20311;-69
2024/01/06 09:58:24;;;;;;;5.27;4.63;;;;;;;1.99;100.00;101208.13;6109472;28;20614;-69
2024/01/06 10:01:46;;;;;;;6.63;5.60;;;;;;;1.63;100.00;101216.91;6107838;28;20235;-70
2024/01/06 10:05:07;;;;;;;4.73;3.83;;;;;;;1.50;100.00;101205.13;6112032;28;20227;-70
2024/01/06 10:08:28;;;;;;;4.87;4.37;;;;;;;1.31;100.00;101217.56;6101673;28;20236;-69
2024/01/06 10:11:49;;;;;;;5.67;5.17;;;;;;;1.10;100.00;101215.84;6112907;28;20574;-67
2024/01/06 10:15:12;;;;;;;5.63;5.13;;;;;;;1.20;100.00;101229.56;6099111;28;20236;-69
2024/01/06 10:18:34;;;;;;;5.07;4.60;;;;;;;1.08;100.00;101241.59;6111969;28;20240;-69
2024/01/06 10:21:56;;;;;;;4.37;3.97;;;;;;;1.14;100.00;101240.47;6119114;28;20232;-69
2024/01/06 10:25:17;;;;;;;5.80;4.10;;;;;;;1.10;100.00;101236.22;6111657;28;20235;-69
2024/01/06 10:28:38;;;;;;;5.83;5.13;;;;;;;1.06;100.00;101238.16;6107116;28;20330;-69
2024/01/06 10:32:00;;;;;;;5.13;4.60;;;;;;;0.97;100.00;101237.69;6114047;28;20232;-69
2024/01/06 10:35:22;;;;;;;4.57;4.27;;;;;;;1.02;100.00;101241.88;6111262;28;20240;-69
2024/01/06 10:38:43;;;;;;;6.27;4.33;;;;;;;1.15;100.00;101248.34;6110074;28;20237;-69
2024/01/06 10:42:07;;;;;;;6.30;5.60;;;;;;;1.03;100.00;101240.94;6098835;28;20248;-69
2024/01/06 10:45:29;;;;;;;8.47;4.77;;;;;;;1.04;100.00;101247.97;6113678;28;20239;-68
2024/01/06 10:48:53;;;;;;;6.37;5.87;;;;;;;1.24;100.00;101255.91;6110338;28;20235;-69
2024/01/06 10:52:14;;;;;;;4.87;4.47;;;;;;;1.03;100.00;101258.63;6092992;28;20244;-68
2024/01/06 10:55:35;;;;;;;9.17;5.20;;;;;;;0.84;100.00;101263.88;6110896;28;20239;-68
2024/01/06 10:58:57;;;;;;;5.37;4.87;;;;;;;1.00;100.00;101266.75;6111183;28;20248;-68
2024/01/06 11:02:19;;;;;;;6.20;4.17;;;;;;;0.85;100.00;101264.75;6106170;28;20247;-68
2024/01/06 11:05:41;;;;;;;4.27;3.87;;;;;;;1.05;100.00;101262.97;6110113;28;20438;-68
2024/01/06 11:09:08;;;;;;;5.83;5.23;;;;;;;0.81;100.00;101264.03;6105509;28;20245;-68
2024/01/06 11:12:28;;;;;;;4.70;4.20;;;;;;;0.67;100.00;101261.94;6109176;28;20231;-68
2024/01/06 11:15:50;;;;;;;8.77;5.03;;;;;;;0.91;100.00;101268.00;6112472;28;20224;-68
2024/01/06 11:19:46;;;;;;;4.30;4.00;;;;;;;0.96;100.00;101263.34;6105223;28;20235;-69
2024/01/06 11:23:21;;;;;;;4.97;3.07;;;;;;;1.01;100.00;101261.38;6107532;28;20231;-69
2024/01/06 11:26:43;;;;;;;3.73;3.43;;;;;;;1.02;100.00;101262.25;6108396;28;20346;-69
2024/01/06 11:30:06;;;;;;;4.30;3.90;;;;;;;0.96;100.00;101267.81;6110623;28;20232;-70
2024/01/06 11:33:27;;;;;;;3.97;3.43;;;;;;;0.97;100.00;101267.75;6127360;28;20228;-68
2024/01/06 11:36:49;;;;;;;4.50;3.43;;;;;;;1.12;100.00;101256.47;6112686;28;20240;-68
2024/01/06 11:40:18;;;;;;;10.07;3.40;;;;;;;1.13;100.00;101263.47;6109349;28;20240;-69
2024/01/06 11:43:40;;;;;;;3.57;3.20;;;;;;;1.16;100.00;101265.16;6109785;28;20243;-68
2024/01/06 11:47:02;;;;;;;4.90;4.37;;;;;;;1.22;100.00;101262.22;6106167;28;20242;-69
2024/01/06 11:50:24;;;;;;;5.30;3.60;;;;;;;1.31;100.00;101264.47;6102310;28;20271;-69
2024/01/06 11:53:45;;;;;;;5.97;3.40;;;;;;;1.03;100.00;101267.47;6105468;28;20251;-69
2024/01/06 11:57:08;;;;;;;4.63;4.23;;;;;;;0.69;100.00;101268.03;6096824;28;20555;-68
2024/01/06 12:00:29;;;;;;;3.43;3.13;;;;;;;0.90;100.00;101268.09;6109488;28;20315;-69
2024/01/06 12:03:54;;;;;;;4.67;4.27;;;;;;;1.07;100.00;101271.72;6103880;28;20228;-69
2024/01/06 12:07:16;;;;;;;3.67;3.07;;;;;;;0.94;100.00;101267.03;6112905;28;20319;-68
2024/01/06 12:10:37;;;;;;;4.37;4.00;;;;;;;0.97;100.00;101274.84;6103517;28;20236;-71
2024/01/06 12:13:59;;;;;;;4.07;3.63;;;;;;;0.95;100.00;101282.00;6104975;28;20236;-69
2024/01/06 12:17:22;;;;;;;5.60;5.03;;;;;;;1.15;100.00;101277.56;6108011;28;20718;-69
2024/01/06 12:20:45;;;;;;;3.83;3.50;;;;;;;0.87;100.00;101285.00;6108863;28;20319;-69
2024/01/06 12:24:18;;;;;;;4.57;3.40;;;;;;;1.05;100.00;101278.00;6113152;28;20251;-68
2024/01/06 12:27:43;;;;;;;3.90;3.60;;;;;;;1.14;100.00;101290.91;6109778;28;20239;-70
2024/01/06 12:31:11;;;;;;;3.87;3.60;;;;;;;1.11;100.00;101297.19;6108086;28;20235;-68
2024/01/06 12:34:32;;;;;;;2.67;2.33;;;;;;;0.96;100.00;101302.31;6112110;28;20231;-68
2024/01/06 12:37:54;;;;;;;3.10;2.80;;;;;;;1.09;100.00;101300.84;6097564;28;20223;-68
2024/01/06 12:41:15;;;;;;;4.67;3.10;;;;;;;0.94;100.00;101307.66;6098325;28;20480;-68
2024/01/06 12:44:38;;;;;;;2.80;2.60;;;;;;;0.93;100.00;101308.59;6110587;28;20715;-68
2024/01/06 12:48:00;;;;;;;3.03;2.83;;;;;;;0.73;100.00;101304.13;6107529;28;20566;-68
2024/01/06 12:51:21;;;;;;;3.23;2.93;;;;;;;0.83;100.00;101312.59;6110828;28;20235;-67
2024/01/06 12:54:42;;;;;;;3.10;2.70;;;;;;;0.86;100.00;101317.75;6106964;28;20570;-67
2024/01/06 12:58:04;;;;;;;3.27;3.07;;;;;;;0.81;100.00;101311.78;6111972;28;20235;-68
2024/01/06 13:01:25;;;;;;;3.57;3.27;;;;;;;0.87;100.00;101316.84;6110255;28;20744;-68
2024/01/06 13:04:47;;;;;;;3.03;2.77;;;;;;;1.04;100.00;101313.47;6110470;28;20239;-70
2024/01/06 13:08:08;;;;;;;2.10;1.90;;;;;;;1.17;100.00;101320.81;6112091;28;20232;-68
2024/01/06 13:11:29;;;;;;;3.20;2.83;;;;;;;0.71;100.00;101324.56;6114127;28;20232;-68
2024/01/06 13:14:50;;;;;;;3.50;3.20;;;;;;;0.87;100.00;101329.22;6111966;28;20227;-69
2024/01/06 13:18:12;;;;;;;2.87;2.00;;;;;;;1.06;100.00;101327.53;6117975;28;20337;-69
2024/01/06 13:21:35;;;;;;;3.37;3.07;;;;;;;1.17;100.00;101328.78;6119889;28;20232;-69
2024/01/06 13:24:56;;;;;;;2.83;2.23;;;;;;;1.21;100.00;101334.84;6115271;28;20235;-68
2024/01/06 13:28:17;;;;;;;3.10;2.90;;;;;;;1.26;100.00;101347.00;6115738;28;20236;-68
2024/01/06 13:31:38;;;;;;;4.73;2.43;;;;;;;1.05;100.00;101347.91;6115223;28;20247;-68
2024/01/06 13:35:04;;;;;;;2.80;2.47;;;;;;;0.81;100.00;101348.94;6116184;28;20224;-68
2024/01/06 13:38:26;;;;;;;3.23;2.80;;;;;;;1.02;100.00;101363.97;6113237;28;20232;-69
2024/01/06 13:41:48;;;;;;;2.63;2.27;;;;;;;0.88;100.00;101376.09;6111584;28;20267;-68
2024/01/06 13:45:09;;;;;;;3.57;3.27;;;;;;;0.92;100.00;101375.03;6128636;28;20228;-68
2024/01/06 13:48:30;;;;;;;2.77;2.37;;;;;;;1.01;100.00;101382.59;6112157;28;20233;-68
2024/01/06 13:51:51;;;;;;;3.10;2.63;;;;;;;1.13;100.00;101384.72;6113149;28;20240;-68
2024/01/06 13:55:13;;;;;;;2.27;2.07;;;;;;;0.92;100.00;101388.28;6117830;28;20236;-69
2024/01/06 13:58:35;;;;;;;6.27;2.97;;;;;;;0.99;100.00;101384.44;6125658;28;20236;-69
2024/01/06 14:01:56;;;;;;;2.40;2.23;;;;;;;1.10;100.00;101387.53;6116107;28;20247;-68
2024/01/06 14:05:19;;;;;;;3.50;3.20;;;;;;;1.08;100.00;101394.69;6120862;28;20906;-69
2024/01/06 14:08:41;;;;;;;3.17;2.87;;;;;;;1.03;100.00;101401.97;6112469;28;20236;-69
2024/01/06 14:12:05;;;;;;;3.13;2.70;;;;;;;1.05;100.00;101402.75;6096678;28;20244;-68
2024/01/06 14:15:26;;;;;;;4.57;2.53;;;;;;;0.73;100.00;101399.63;6109333;28;20238;-68
2024/01/06 14:18:47;;;;;;;7.07;3.30;;;;;;;0.86;100.00;101409.75;6110282;28;20232;-70
2024/01/06 14:22:08;;;;;;;2.73;2.47;;;;;;;0.89;100.00;101415.81;6110289;28;20248;-70
2024/01/06 14:25:29;;;;;;;2.50;2.30;;;;;;;0.90;100.00;101419.34;6110815;28;20605;-69
2024/01/06 14:28:52;;;;;;;2.73;2.20;;;;;;;0.91;100.00;101421.06;6119916;28;20240;-69
2024/01/06 14:32:13;;;;;;;3.30;3.10;;;;;;;1.02;100.00;101432.97;6105201;28;20247;-68
2024/01/06 14:35:34;;;;;;;3.27;3.07;;;;;;;0.90;100.00;101444.06;6112857;28;22852;-69
2024/01/06 14:38:55;;;;;;;3.40;3.13;;;;;;;0.87;100.00;101443.31;6116239;28;20232;-69
2024/01/06 14:42:16;;;;;;;3.80;3.30;;;;;;;0.83;100.00;101451.41;6113070;28;20232;-69
2024/01/06 14:45:39;;;;;;;3.30;2.90;;;;;;;0.87;100.00;101445.97;6114583;28;20584;-68
2024/01/06 14:48:59;;;;;;;2.60;2.40;;;;;;;0.84;100.00;101454.91;6112621;28;20501;-68
2024/01/06 14:52:21;;;;;;;4.07;3.33;;;;;;;0.88;100.00;101464.47;6110102;28;20263;-68
2024/01/06 14:55:42;;;;;;;1.70;1.53;;;;;;;1.96;100.00;101468.78;6111610;28;20387;-72
2024/01/06 14:59:03;;;;;;;4.53;4.13;;;;;;;3.14;100.00;101482.75;6114695;28;20323;-70
2024/01/06 15:02:26;;;;;;;3.47;3.17;;;;;;;3.74;100.00;101473.50;6111897;28;20251;-70
2024/01/06 15:05:46;;;;;;;6.90;3.53;;;;;;;3.56;100.00;101479.78;6111064;28;20227;-70
2024/01/06 15:09:09;;;;;;;4.13;3.17;;;;;;;1.89;100.00;101488.59;6101777;28;20239;-68
2024/01/06 15:12:31;;;;;;;3.93;3.60;;;;;;;1.41;100.00;101492.41;6100762;28;21377;-68
2024/01/06 15:15:52;;;;;;;3.57;3.27;;;;;;;0.88;100.00;101498.16;6104603;28;20260;-68
2024/01/06 15:19:14;;;;;;;2.37;2.17;;;;;;;0.96;100.00;101502.19;6115228;28;20235;-66
2024/01/06 15:22:35;;;;;;;3.53;3.23;;;;;;;1.03;100.00;101505.47;6108247;28;20508;-67
2024/01/06 15:25:56;;;;;;;3.40;3.13;;;;;;;1.00;100.00;101517.06;6106942;28;20329;-67
2024/01/06 15:29:17;;;;;;;5.13;4.03;;;;;;;0.69;100.00;101529.78;6111033;28;20324;-68
2024/01/06 15:32:39;;;;;;;4.07;2.93;;;;;;;2.69;100.00;101522.22;6107634;28;20240;-69
2024/01/06 15:36:01;;;;;;;5.10;4.60;;;;;;;2.06;100.00;101532.13;6110431;28;20236;-67